sensor_id;sensor_type;location;lat;lon;timestamp;P1;durP1;ratioP1;P2;durP2;ratioP2
76548;SDS011;65391;52.068;4.542;2023-04-22T00:00:23;24.1;;;14.6;;
76548;SDS011;65391;52.068;4.542;2023-04-22T00:02:47;24.1;;;14.6;;
76548;SDS011;65391;52.068;4.542;2023-04-22T00:05:12;24.1;;;14.6;;
76548;SDS011;65391;52.068;4.542;2023-04-22T00:07:37;24.1;;;14.6;;
76548;SDS011;65391;52.068;4.542;2023-04-22T00:10:03;24.7;;;15.4;;
76548;SDS011;65391;52.068;4.542;2023-04-22T00:12:28;24.7;;;15.4;;
76548;SDS011;65391;52.068;4.542;2023-04-22T00:14:52;24.7;;;15.4;;
76548;SDS011;65391;52.068;4.542;2023-04-22T00:17:17;24.7;;;15.4;;
76548;SDS011;65391;52.068;4.542;2023-04-22T00:19:42;24.7;;;15.4;;
76548;SDS011;65391;52.068;4.542;2023-04-22T00:22:07;25.9;;;16.8;;
76548;SDS011;65391;52.068;4.542;2023-04-22T00:24:32;25.9;;;16.8;;
76548;SDS011;65391;52.068;4.542;2023-04-22T00:26:58;25.9;;;16.8;;
76548;SDS011;65391;52.068;4.542;2023-04-22T00:29:23;25.9;;;16.8;;
76548;SDS011;65391;52.068;4.542;2023-04-22T00:31:47;25.7;;;16.6;;
76548;SDS011;65391;52.068;4.542;2023-04-22T00:34:13;25.7;;;16.6;;
76548;SDS011;65391;52.068;4.542;2023-04-22T00:36:38;25.7;;;16.6;;
76548;SDS011;65391;52.068;4.542;2023-04-22T00:39:03;25.7;;;16.6;;
76548;SDS011;65391;52.068;4.542;2023-04-22T00:41:27;25.1;;;16.4;;
76548;SDS011;65391;52.068;4.542;2023-04-22T00:43:52;25.1;;;16.4;;
76548;SDS011;65391;52.068;4.542;2023-04-22T00:46:18;25.1;;;16.4;;
76548;SDS011;65391;52.068;4.542;2023-04-22T00:48:43;25.1;;;16.4;;
76548;SDS011;65391;52.068;4.542;2023-04-22T00:51:08;24.5;;;15.6;;
76548;SDS011;65391;52.068;4.542;2023-04-22T00:53:33;24.5;;;15.6;;
76548;SDS011;65391;52.068;4.542;2023-04-22T00:55:58;24.5;;;15.6;;
76548;SDS011;65391;52.068;4.542;2023-04-22T00:58:24;24.5;;;15.6;;
76548;SDS011;65391;52.068;4.542;2023-04-22T01:00:48;23.2;;;14.3;;
76548;SDS011;65391;52.068;4.542;2023-04-22T01:03:13;23.2;;;14.3;;
76548;SDS011;65391;52.068;4.542;2023-04-22T01:05:38;23.2;;;14.3;;
76548;SDS011;65391;52.068;4.542;2023-04-22T01:08:03;23.2;;;14.3;;
76548;SDS011;65391;52.068;4.542;2023-04-22T01:10:28;27.2;;;19.1;;
76548;SDS011;65391;52.068;4.542;2023-04-22T01:12:53;27.2;;;19.1;;
76548;SDS011;65391;52.068;4.542;2023-04-22T01:15:18;27.2;;;19.1;;
76548;SDS011;65391;52.068;4.542;2023-04-22T01:17:43;27.2;;;19.1;;
76548;SDS011;65391;52.068;4.542;2023-04-22T01:20:08;26.6;;;18.4;;
76548;SDS011;65391;52.068;4.542;2023-04-22T01:22:35;26.6;;;18.4;;
76548;SDS011;65391;52.068;4.542;2023-04-22T01:24:58;26.6;;;18.4;;
76548;SDS011;65391;52.068;4.542;2023-04-22T01:27:23;26.6;;;18.4;;
76548;SDS011;65391;52.068;4.542;2023-04-22T01:29:48;26.6;;;18.4;;
76548;SDS011;65391;52.068;4.542;2023-04-22T01:32:13;25.9;;;17.6;;
76548;SDS011;65391;52.068;4.542;2023-04-22T01:34:38;25.9;;;17.6;;
76548;SDS011;65391;52.068;4.542;2023-04-22T01:37:03;25.9;;;17.6;;
76548;SDS011;65391;52.068;4.542;2023-04-22T01:39:28;25.9;;;17.6;;
76548;SDS011;65391;52.068;4.542;2023-04-22T01:41:53;28.1;;;20.3;;
76548;SDS011;65391;52.068;4.542;2023-04-22T01:44:18;28.1;;;20.3;;
76548;SDS011;65391;52.068;4.542;2023-04-22T01:46:43;28.1;;;20.3;;
76548;SDS011;65391;52.068;4.542;2023-04-22T01:49:08;28.1;;;20.3;;
76548;SDS011;65391;52.068;4.542;2023-04-22T01:51:33;25.6;;;18.2;;
76548;SDS011;65391;52.068;4.542;2023-04-22T01:53:58;25.6;;;18.2;;
76548;SDS011;65391;52.068;4.542;2023-04-22T01:56:23;25.6;;;18.2;;
76548;SDS011;65391;52.068;4.542;2023-04-22T01:58:48;25.6;;;18.2;;
76548;SDS011;65391;52.068;4.542;2023-04-22T02:01:13;23.1;;;15.1;;
76548;SDS011;65391;52.068;4.542;2023-04-22T02:03:38;23.1;;;15.1;;
76548;SDS011;65391;52.068;4.542;2023-04-22T02:06:03;23.1;;;15.1;;
76548;SDS011;65391;52.068;4.542;2023-04-22T02:08:28;23.1;;;15.1;;
76548;SDS011;65391;52.068;4.542;2023-04-22T02:10:53;29.9;;;14;;
76548;SDS011;65391;52.068;4.542;2023-04-22T02:13:18;29.9;;;14;;
76548;SDS011;65391;52.068;4.542;2023-04-22T02:15:43;29.9;;;14;;
76548;SDS011;65391;52.068;4.542;2023-04-22T02:18:08;29.9;;;14;;
76548;SDS011;65391;52.068;4.542;2023-04-22T02:20:33;48.2;;;15.8;;
76548;SDS011;65391;52.068;4.542;2023-04-22T02:22:58;48.2;;;15.8;;
76548;SDS011;65391;52.068;4.542;2023-04-22T02:25:23;48.2;;;15.8;;
76548;SDS011;65391;52.068;4.542;2023-04-22T02:27:48;48.2;;;15.8;;
76548;SDS011;65391;52.068;4.542;2023-04-22T02:30:13;80.3;;;16;;
76548;SDS011;65391;52.068;4.542;2023-04-22T02:32:38;80.3;;;16;;
76548;SDS011;65391;52.068;4.542;2023-04-22T02:35:03;80.3;;;16;;
76548;SDS011;65391;52.068;4.542;2023-04-22T02:37:28;80.3;;;16;;
76548;SDS011;65391;52.068;4.542;2023-04-22T02:39:53;80.3;;;16;;
76548;SDS011;65391;52.068;4.542;2023-04-22T02:42:18;23;;;15.1;;
76548;SDS011;65391;52.068;4.542;2023-04-22T02:44:43;23;;;15.1;;
76548;SDS011;65391;52.068;4.542;2023-04-22T02:47:08;23;;;15.1;;
76548;SDS011;65391;52.068;4.542;2023-04-22T02:49:33;23;;;15.1;;
76548;SDS011;65391;52.068;4.542;2023-04-22T02:51:58;22.7;;;15.6;;
76548;SDS011;65391;52.068;4.542;2023-04-22T02:54:23;22.7;;;15.6;;
76548;SDS011;65391;52.068;4.542;2023-04-22T02:56:48;22.7;;;15.6;;
76548;SDS011;65391;52.068;4.542;2023-04-22T02:59:13;22.7;;;15.6;;
76548;SDS011;65391;52.068;4.542;2023-04-22T03:01:38;25.5;;;18.4;;
76548;SDS011;65391;52.068;4.542;2023-04-22T03:04:03;25.5;;;18.4;;
76548;SDS011;65391;52.068;4.542;2023-04-22T03:06:28;25.5;;;18.4;;
76548;SDS011;65391;52.068;4.542;2023-04-22T03:08:53;25.5;;;18.4;;
76548;SDS011;65391;52.068;4.542;2023-04-22T03:11:18;25.1;;;17.9;;
76548;SDS011;65391;52.068;4.542;2023-04-22T03:13:43;25.1;;;17.9;;
76548;SDS011;65391;52.068;4.542;2023-04-22T03:16:08;25.1;;;17.9;;
76548;SDS011;65391;52.068;4.542;2023-04-22T03:18:33;25.1;;;17.9;;
76548;SDS011;65391;52.068;4.542;2023-04-22T03:20:58;24.6;;;17.7;;
76548;SDS011;65391;52.068;4.542;2023-04-22T03:23:23;24.6;;;17.7;;
76548;SDS011;65391;52.068;4.542;2023-04-22T03:25:48;24.6;;;17.7;;
76548;SDS011;65391;52.068;4.542;2023-04-22T03:28:13;24.6;;;17.7;;
76548;SDS011;65391;52.068;4.542;2023-04-22T03:30:38;24.6;;;17.4;;
76548;SDS011;65391;52.068;4.542;2023-04-22T03:33:03;24.6;;;17.4;;
76548;SDS011;65391;52.068;4.542;2023-04-22T03:35:28;24.6;;;17.4;;
76548;SDS011;65391;52.068;4.542;2023-04-22T03:37:53;24.6;;;17.4;;
76548;SDS011;65391;52.068;4.542;2023-04-22T03:40:18;32.8;;;18;;
76548;SDS011;65391;52.068;4.542;2023-04-22T03:42:43;32.8;;;18;;
76548;SDS011;65391;52.068;4.542;2023-04-22T03:45:08;32.8;;;18;;
76548;SDS011;65391;52.068;4.542;2023-04-22T03:47:33;32.8;;;18;;
76548;SDS011;65391;52.068;4.542;2023-04-22T03:49:58;32.8;;;18;;
76548;SDS011;65391;52.068;4.542;2023-04-22T03:52:23;24;;;17.4;;
76548;SDS011;65391;52.068;4.542;2023-04-22T03:54:48;24;;;17.4;;
76548;SDS011;65391;52.068;4.542;2023-04-22T03:57:13;24;;;17.4;;
76548;SDS011;65391;52.068;4.542;2023-04-22T03:59:38;24;;;17.4;;
76548;SDS011;65391;52.068;4.542;2023-04-22T04:02:03;24;;;16.4;;
76548;SDS011;65391;52.068;4.542;2023-04-22T04:04:28;24;;;16.4;;
76548;SDS011;65391;52.068;4.542;2023-04-22T04:06:53;24;;;16.4;;
76548;SDS011;65391;52.068;4.542;2023-04-22T04:09:18;24;;;16.4;;
76548;SDS011;65391;52.068;4.542;2023-04-22T04:11:43;22.2;;;14.4;;
76548;SDS011;65391;52.068;4.542;2023-04-22T04:14:08;22.2;;;14.4;;
76548;SDS011;65391;52.068;4.542;2023-04-22T04:16:33;22.2;;;14.4;;
76548;SDS011;65391;52.068;4.542;2023-04-22T04:18:58;22.2;;;14.4;;
76548;SDS011;65391;52.068;4.542;2023-04-22T04:21:23;23.4;;;15.5;;
76548;SDS011;65391;52.068;4.542;2023-04-22T04:23:48;23.4;;;15.5;;
76548;SDS011;65391;52.068;4.542;2023-04-22T04:26:13;23.4;;;15.5;;
76548;SDS011;65391;52.068;4.542;2023-04-22T04:28:38;23.4;;;15.5;;
76548;SDS011;65391;52.068;4.542;2023-04-22T04:31:03;23.5;;;15.7;;
76548;SDS011;65391;52.068;4.542;2023-04-22T04:33:28;23.5;;;15.7;;
76548;SDS011;65391;52.068;4.542;2023-04-22T04:35:53;23.5;;;15.7;;
76548;SDS011;65391;52.068;4.542;2023-04-22T04:38:18;23.5;;;15.7;;
76548;SDS011;65391;52.068;4.542;2023-04-22T04:40:43;24.1;;;16.5;;
76548;SDS011;65391;52.068;4.542;2023-04-22T04:43:08;24.1;;;16.5;;
76548;SDS011;65391;52.068;4.542;2023-04-22T04:45:33;24.1;;;16.5;;
76548;SDS011;65391;52.068;4.542;2023-04-22T04:47:58;24.1;;;16.5;;
76548;SDS011;65391;52.068;4.542;2023-04-22T04:50:23;23.9;;;16.1;;
76548;SDS011;65391;52.068;4.542;2023-04-22T04:52:48;23.9;;;16.1;;
76548;SDS011;65391;52.068;4.542;2023-04-22T04:55:13;23.9;;;16.1;;
76548;SDS011;65391;52.068;4.542;2023-04-22T04:57:38;23.9;;;16.1;;
76548;SDS011;65391;52.068;4.542;2023-04-22T05:00:04;23.9;;;16.1;;
76548;SDS011;65391;52.068;4.542;2023-04-22T05:02:28;23.1;;;15.4;;
76548;SDS011;65391;52.068;4.542;2023-04-22T05:04:53;23.1;;;15.4;;
76548;SDS011;65391;52.068;4.542;2023-04-22T05:07:18;23.1;;;15.4;;
76548;SDS011;65391;52.068;4.542;2023-04-22T05:09:43;23.1;;;15.4;;
76548;SDS011;65391;52.068;4.542;2023-04-22T05:12:08;22;;;14.1;;
76548;SDS011;65391;52.068;4.542;2023-04-22T05:14:33;22;;;14.1;;
76548;SDS011;65391;52.068;4.542;2023-04-22T05:16:58;22;;;14.1;;
76548;SDS011;65391;52.068;4.542;2023-04-22T05:19:23;22;;;14.1;;
76548;SDS011;65391;52.068;4.542;2023-04-22T05:21:48;22.5;;;14.5;;
76548;SDS011;65391;52.068;4.542;2023-04-22T05:24:13;22.5;;;14.5;;
76548;SDS011;65391;52.068;4.542;2023-04-22T05:26:39;22.5;;;14.5;;
76548;SDS011;65391;52.068;4.542;2023-04-22T05:29:03;22.5;;;14.5;;
76548;SDS011;65391;52.068;4.542;2023-04-22T05:31:28;21.7;;;13.8;;
76548;SDS011;65391;52.068;4.542;2023-04-22T05:33:53;21.7;;;13.8;;
76548;SDS011;65391;52.068;4.542;2023-04-22T05:36:18;21.7;;;13.8;;
76548;SDS011;65391;52.068;4.542;2023-04-22T05:38:43;21.7;;;13.8;;
76548;SDS011;65391;52.068;4.542;2023-04-22T05:41:09;23;;;14.9;;
76548;SDS011;65391;52.068;4.542;2023-04-22T05:43:33;23;;;14.9;;
76548;SDS011;65391;52.068;4.542;2023-04-22T05:45:58;23;;;14.9;;
76548;SDS011;65391;52.068;4.542;2023-04-22T05:48:23;23;;;14.9;;
76548;SDS011;65391;52.068;4.542;2023-04-22T05:50:48;23.4;;;15.4;;
76548;SDS011;65391;52.068;4.542;2023-04-22T05:53:13;23.4;;;15.4;;
76548;SDS011;65391;52.068;4.542;2023-04-22T05:55:38;23.4;;;15.4;;
76548;SDS011;65391;52.068;4.542;2023-04-22T05:58:03;23.4;;;15.4;;
76548;SDS011;65391;52.068;4.542;2023-04-22T06:00:28;22.8;;;14.8;;
76548;SDS011;65391;52.068;4.542;2023-04-22T06:02:53;22.8;;;14.8;;
76548;SDS011;65391;52.068;4.542;2023-04-22T06:05:18;22.8;;;14.8;;
76548;SDS011;65391;52.068;4.542;2023-04-22T06:07:43;22.8;;;14.8;;
76548;SDS011;65391;52.068;4.542;2023-04-22T06:10:08;22.8;;;14.8;;
76548;SDS011;65391;52.068;4.542;2023-04-22T06:12:33;23.4;;;15.3;;
76548;SDS011;65391;52.068;4.542;2023-04-22T06:14:58;23.4;;;15.3;;
76548;SDS011;65391;52.068;4.542;2023-04-22T06:17:23;23.4;;;15.3;;
76548;SDS011;65391;52.068;4.542;2023-04-22T06:19:48;23.4;;;15.3;;
76548;SDS011;65391;52.068;4.542;2023-04-22T06:22:13;22;;;14.1;;
76548;SDS011;65391;52.068;4.542;2023-04-22T06:24:38;22;;;14.1;;
76548;SDS011;65391;52.068;4.542;2023-04-22T06:27:03;22;;;14.1;;
76548;SDS011;65391;52.068;4.542;2023-04-22T06:29:28;22;;;14.1;;
76548;SDS011;65391;52.068;4.542;2023-04-22T06:31:53;23.1;;;15.1;;
76548;SDS011;65391;52.068;4.542;2023-04-22T06:34:18;23.1;;;15.1;;
76548;SDS011;65391;52.068;4.542;2023-04-22T06:36:43;23.1;;;15.1;;
76548;SDS011;65391;52.068;4.542;2023-04-22T06:39:08;23.1;;;15.1;;
76548;SDS011;65391;52.068;4.542;2023-04-22T06:41:33;22.9;;;15;;
76548;SDS011;65391;52.068;4.542;2023-04-22T06:43:58;22.9;;;15;;
76548;SDS011;65391;52.068;4.542;2023-04-22T06:46:23;22.9;;;15;;
76548;SDS011;65391;52.068;4.542;2023-04-22T06:48:49;22.9;;;15;;
76548;SDS011;65391;52.068;4.542;2023-04-22T06:51:13;23.4;;;15.5;;
76548;SDS011;65391;52.068;4.542;2023-04-22T06:53:38;23.4;;;15.5;;
76548;SDS011;65391;52.068;4.542;2023-04-22T06:56:04;23.4;;;15.5;;
76548;SDS011;65391;52.068;4.542;2023-04-22T06:58:28;23.4;;;15.5;;
76548;SDS011;65391;52.068;4.542;2023-04-22T07:00:53;24;;;16;;
76548;SDS011;65391;52.068;4.542;2023-04-22T07:03:18;24;;;16;;
76548;SDS011;65391;52.068;4.542;2023-04-22T07:05:44;24;;;16;;
76548;SDS011;65391;52.068;4.542;2023-04-22T07:08:08;24;;;16;;
76548;SDS011;65391;52.068;4.542;2023-04-22T07:10:33;23.8;;;15.7;;
76548;SDS011;65391;52.068;4.542;2023-04-22T07:12:58;23.8;;;15.7;;
76548;SDS011;65391;52.068;4.542;2023-04-22T07:15:23;23.8;;;15.7;;
76548;SDS011;65391;52.068;4.542;2023-04-22T07:17:48;23.8;;;15.7;;
76548;SDS011;65391;52.068;4.542;2023-04-22T07:20:13;23.8;;;15.7;;
76548;SDS011;65391;52.068;4.542;2023-04-22T07:22:38;23.3;;;14.9;;
76548;SDS011;65391;52.068;4.542;2023-04-22T07:25:04;23.3;;;14.9;;
76548;SDS011;65391;52.068;4.542;2023-04-22T07:27:28;23.3;;;14.9;;
76548;SDS011;65391;52.068;4.542;2023-04-22T07:29:53;23.3;;;14.9;;
76548;SDS011;65391;52.068;4.542;2023-04-22T07:32:18;22.6;;;14.9;;
76548;SDS011;65391;52.068;4.542;2023-04-22T07:34:44;22.6;;;14.9;;
76548;SDS011;65391;52.068;4.542;2023-04-22T07:37:08;22.6;;;14.9;;
76548;SDS011;65391;52.068;4.542;2023-04-22T07:39:33;22.6;;;14.9;;
76548;SDS011;65391;52.068;4.542;2023-04-22T07:41:58;23.4;;;14.1;;
76548;SDS011;65391;52.068;4.542;2023-04-22T07:44:23;23.4;;;14.1;;
76548;SDS011;65391;52.068;4.542;2023-04-22T07:46:48;23.4;;;14.1;;
76548;SDS011;65391;52.068;4.542;2023-04-22T07:49:13;23.4;;;14.1;;
76548;SDS011;65391;52.068;4.542;2023-04-22T07:51:39;20.5;;;13.8;;
76548;SDS011;65391;52.068;4.542;2023-04-22T07:54:04;20.5;;;13.8;;
76548;SDS011;65391;52.068;4.542;2023-04-22T07:56:28;20.5;;;13.8;;
76548;SDS011;65391;52.068;4.542;2023-04-22T07:58:53;20.5;;;13.8;;
76548;SDS011;65391;52.068;4.542;2023-04-22T08:01:18;18.3;;;12.8;;
76548;SDS011;65391;52.068;4.542;2023-04-22T08:03:44;18.3;;;12.8;;
76548;SDS011;65391;52.068;4.542;2023-04-22T08:06:08;18.3;;;12.8;;
76548;SDS011;65391;52.068;4.542;2023-04-22T08:08:33;18.3;;;12.8;;
76548;SDS011;65391;52.068;4.542;2023-04-22T08:10:59;15.2;;;12.2;;
76548;SDS011;65391;52.068;4.542;2023-04-22T08:13:23;15.2;;;12.2;;
76548;SDS011;65391;52.068;4.542;2023-04-22T08:15:49;15.2;;;12.2;;
76548;SDS011;65391;52.068;4.542;2023-04-22T08:18:14;15.2;;;12.2;;
76548;SDS011;65391;52.068;4.542;2023-04-22T08:20:39;13.2;;;11.8;;
76548;SDS011;65391;52.068;4.542;2023-04-22T08:23:04;13.2;;;11.8;;
76548;SDS011;65391;52.068;4.542;2023-04-22T08:25:29;13.2;;;11.8;;
76548;SDS011;65391;52.068;4.542;2023-04-22T08:27:54;13.2;;;11.8;;
76548;SDS011;65391;52.068;4.542;2023-04-22T08:30:19;13.2;;;11.8;;
76548;SDS011;65391;52.068;4.542;2023-04-22T08:32:44;17.8;;;11.2;;
76548;SDS011;65391;52.068;4.542;2023-04-22T08:35:09;17.8;;;11.2;;
76548;SDS011;65391;52.068;4.542;2023-04-22T08:37:34;17.8;;;11.2;;
76548;SDS011;65391;52.068;4.542;2023-04-22T08:39:59;17.8;;;11.2;;
76548;SDS011;65391;52.068;4.542;2023-04-22T08:42:24;12.7;;;11;;
76548;SDS011;65391;52.068;4.542;2023-04-22T08:44:49;12.7;;;11;;
76548;SDS011;65391;52.068;4.542;2023-04-22T08:47:14;12.7;;;11;;
76548;SDS011;65391;52.068;4.542;2023-04-22T08:49:39;12.7;;;11;;
76548;SDS011;65391;52.068;4.542;2023-04-22T08:52:04;9.4;;;7.5;;
76548;SDS011;65391;52.068;4.542;2023-04-22T08:54:29;9.4;;;7.5;;
76548;SDS011;65391;52.068;4.542;2023-04-22T08:56:54;9.4;;;7.5;;
76548;SDS011;65391;52.068;4.542;2023-04-22T08:59:19;9.4;;;7.5;;
76548;SDS011;65391;52.068;4.542;2023-04-22T09:01:44;8.2;;;7.4;;
76548;SDS011;65391;52.068;4.542;2023-04-22T09:04:09;8.2;;;7.4;;
76548;SDS011;65391;52.068;4.542;2023-04-22T09:06:34;8.2;;;7.4;;
76548;SDS011;65391;52.068;4.542;2023-04-22T09:08:59;8.2;;;7.4;;
76548;SDS011;65391;52.068;4.542;2023-04-22T09:11:25;9.4;;;8.4;;
76548;SDS011;65391;52.068;4.542;2023-04-22T09:13:49;9.4;;;8.4;;
76548;SDS011;65391;52.068;4.542;2023-04-22T09:16:14;9.4;;;8.4;;
76548;SDS011;65391;52.068;4.542;2023-04-22T09:18:40;9.4;;;8.4;;
76548;SDS011;65391;52.068;4.542;2023-04-22T09:21:04;8.7;;;5.9;;
76548;SDS011;65391;52.068;4.542;2023-04-22T09:23:29;8.7;;;5.9;;
76548;SDS011;65391;52.068;4.542;2023-04-22T09:25:55;8.7;;;5.9;;
76548;SDS011;65391;52.068;4.542;2023-04-22T09:28:19;8.7;;;5.9;;
76548;SDS011;65391;52.068;4.542;2023-04-22T09:30:45;9;;;6.6;;
76548;SDS011;65391;52.068;4.542;2023-04-22T09:33:09;9;;;6.6;;
76548;SDS011;65391;52.068;4.542;2023-04-22T09:35:35;9;;;6.6;;
76548;SDS011;65391;52.068;4.542;2023-04-22T09:38:00;9;;;6.6;;
76548;SDS011;65391;52.068;4.542;2023-04-22T09:40:24;9;;;6.6;;
76548;SDS011;65391;52.068;4.542;2023-04-22T09:42:49;7.9;;;6.4;;
76548;SDS011;65391;52.068;4.542;2023-04-22T09:45:17;7.9;;;6.4;;
76548;SDS011;65391;52.068;4.542;2023-04-22T09:47:39;7.9;;;6.4;;
76548;SDS011;65391;52.068;4.542;2023-04-22T09:50:04;7.9;;;6.4;;
76548;SDS011;65391;52.068;4.542;2023-04-22T09:52:29;7.6;;;6.4;;
76548;SDS011;65391;52.068;4.542;2023-04-22T09:54:54;7.6;;;6.4;;
76548;SDS011;65391;52.068;4.542;2023-04-22T09:57:19;7.6;;;6.4;;
76548;SDS011;65391;52.068;4.542;2023-04-22T09:59:44;7.6;;;6.4;;
76548;SDS011;65391;52.068;4.542;2023-04-22T10:02:09;7.7;;;6.6;;
76548;SDS011;65391;52.068;4.542;2023-04-22T10:04:34;7.7;;;6.6;;
76548;SDS011;65391;52.068;4.542;2023-04-22T10:06:59;7.7;;;6.6;;
76548;SDS011;65391;52.068;4.542;2023-04-22T10:09:24;7.7;;;6.6;;
76548;SDS011;65391;52.068;4.542;2023-04-22T10:11:50;7.3;;;6.4;;
76548;SDS011;65391;52.068;4.542;2023-04-22T10:14:14;7.3;;;6.4;;
76548;SDS011;65391;52.068;4.542;2023-04-22T10:16:39;7.3;;;6.4;;
76548;SDS011;65391;52.068;4.542;2023-04-22T10:19:05;7.3;;;6.4;;
76548;SDS011;65391;52.068;4.542;2023-04-22T10:21:29;8.8;;;7.9;;
76548;SDS011;65391;52.068;4.542;2023-04-22T10:23:54;8.8;;;7.9;;
76548;SDS011;65391;52.068;4.542;2023-04-22T10:26:38;8.8;;;7.9;;
76548;SDS011;65391;52.068;4.542;2023-04-22T10:28:44;8.8;;;7.9;;
76548;SDS011;65391;52.068;4.542;2023-04-22T10:31:19;8.3;;;7.4;;
76548;SDS011;65391;52.068;4.542;2023-04-22T10:33:34;8.3;;;7.4;;
76548;SDS011;65391;52.068;4.542;2023-04-22T10:36:08;8.3;;;7.4;;
76548;SDS011;65391;52.068;4.542;2023-04-22T10:38:24;8.3;;;7.4;;
76548;SDS011;65391;52.068;4.542;2023-04-22T10:40:57;8.8;;;7.3;;
76548;SDS011;65391;52.068;4.542;2023-04-22T10:43:14;8.8;;;7.3;;
76548;SDS011;65391;52.068;4.542;2023-04-22T10:45:39;8.8;;;7.3;;
76548;SDS011;65391;52.068;4.542;2023-04-22T10:48:04;8.8;;;7.3;;
76548;SDS011;65391;52.068;4.542;2023-04-22T10:50:30;8.8;;;7.3;;
76548;SDS011;65391;52.068;4.542;2023-04-22T10:52:55;11.2;;;9.2;;
76548;SDS011;65391;52.068;4.542;2023-04-22T10:55:20;11.2;;;9.2;;
76548;SDS011;65391;52.068;4.542;2023-04-22T10:57:45;11.2;;;9.2;;
76548;SDS011;65391;52.068;4.542;2023-04-22T11:00:41;11.2;;;9.2;;
76548;SDS011;65391;52.068;4.542;2023-04-22T11:02:35;11.7;;;10.2;;
76548;SDS011;65391;52.068;4.542;2023-04-22T11:05:17;11.7;;;10.2;;
76548;SDS011;65391;52.068;4.542;2023-04-22T11:07:31;11.7;;;10.2;;
76548;SDS011;65391;52.068;4.542;2023-04-22T11:09:49;11.7;;;10.2;;
76548;SDS011;65391;52.068;4.542;2023-04-22T11:12:40;13.9;;;11.8;;
76548;SDS011;65391;52.068;4.542;2023-04-22T11:14:39;13.9;;;11.8;;
76548;SDS011;65391;52.068;4.542;2023-04-22T11:17:04;13.9;;;11.8;;
76548;SDS011;65391;52.068;4.542;2023-04-22T11:19:29;13.9;;;11.8;;
76548;SDS011;65391;52.068;4.542;2023-04-22T11:21:54;17.3;;;12.5;;
76548;SDS011;65391;52.068;4.542;2023-04-22T11:24:19;17.3;;;12.5;;
76548;SDS011;65391;52.068;4.542;2023-04-22T11:26:44;17.3;;;12.5;;
76548;SDS011;65391;52.068;4.542;2023-04-22T11:29:09;17.3;;;12.5;;
76548;SDS011;65391;52.068;4.542;2023-04-22T11:31:34;23.6;;;17.2;;
76548;SDS011;65391;52.068;4.542;2023-04-22T11:33:59;23.6;;;17.2;;
76548;SDS011;65391;52.068;4.542;2023-04-22T11:36:24;23.6;;;17.2;;
76548;SDS011;65391;52.068;4.542;2023-04-22T11:38:53;23.6;;;17.2;;
76548;SDS011;65391;52.068;4.542;2023-04-22T11:41:19;26.1;;;17.8;;
76548;SDS011;65391;52.068;4.542;2023-04-22T11:43:45;26.1;;;17.8;;
76548;SDS011;65391;52.068;4.542;2023-04-22T11:46:04;26.1;;;17.8;;
76548;SDS011;65391;52.068;4.542;2023-04-22T11:48:29;26.1;;;17.8;;
76548;SDS011;65391;52.068;4.542;2023-04-22T11:51:07;31.3;;;19.4;;
76548;SDS011;65391;52.068;4.542;2023-04-22T11:53:20;31.3;;;19.4;;
76548;SDS011;65391;52.068;4.542;2023-04-22T11:55:46;31.3;;;19.4;;
76548;SDS011;65391;52.068;4.542;2023-04-22T11:58:11;31.3;;;19.4;;
76548;SDS011;65391;52.068;4.542;2023-04-22T12:00:36;31.3;;;19.4;;
76548;SDS011;65391;52.068;4.542;2023-04-22T12:03:00;32;;;20.8;;
76548;SDS011;65391;52.068;4.542;2023-04-22T12:05:40;32;;;20.8;;
76548;SDS011;65391;52.068;4.542;2023-04-22T12:07:49;32;;;20.8;;
76548;SDS011;65391;52.068;4.542;2023-04-22T12:10:14;32;;;20.8;;
76548;SDS011;65391;52.068;4.542;2023-04-22T12:12:39;29.8;;;20;;
76548;SDS011;65391;52.068;4.542;2023-04-22T12:15:07;29.8;;;20;;
76548;SDS011;65391;52.068;4.542;2023-04-22T12:17:29;29.8;;;20;;
76548;SDS011;65391;52.068;4.542;2023-04-22T12:19:54;29.8;;;20;;
76548;SDS011;65391;52.068;4.542;2023-04-22T12:22:23;31.8;;;22.8;;
76548;SDS011;65391;52.068;4.542;2023-04-22T12:24:44;31.8;;;22.8;;
76548;SDS011;65391;52.068;4.542;2023-04-22T12:27:09;31.8;;;22.8;;
76548;SDS011;65391;52.068;4.542;2023-04-22T12:29:34;31.8;;;22.8;;
76548;SDS011;65391;52.068;4.542;2023-04-22T12:31:59;31.1;;;20.9;;
76548;SDS011;65391;52.068;4.542;2023-04-22T12:34:24;31.1;;;20.9;;
76548;SDS011;65391;52.068;4.542;2023-04-22T12:36:49;31.1;;;20.9;;
76548;SDS011;65391;52.068;4.542;2023-04-22T12:39:14;31.1;;;20.9;;
76548;SDS011;65391;52.068;4.542;2023-04-22T12:41:39;32;;;22.2;;
76548;SDS011;65391;52.068;4.542;2023-04-22T12:44:04;32;;;22.2;;
76548;SDS011;65391;52.068;4.542;2023-04-22T12:46:29;32;;;22.2;;
76548;SDS011;65391;52.068;4.542;2023-04-22T12:48:54;32;;;22.2;;
76548;SDS011;65391;52.068;4.542;2023-04-22T12:51:19;31.4;;;21.7;;
76548;SDS011;65391;52.068;4.542;2023-04-22T12:53:44;31.4;;;21.7;;
76548;SDS011;65391;52.068;4.542;2023-04-22T12:56:09;31.4;;;21.7;;
76548;SDS011;65391;52.068;4.542;2023-04-22T12:58:34;31.4;;;21.7;;
76548;SDS011;65391;52.068;4.542;2023-04-22T13:00:59;31.6;;;21;;
76548;SDS011;65391;52.068;4.542;2023-04-22T13:03:24;31.6;;;21;;
76548;SDS011;65391;52.068;4.542;2023-04-22T13:05:49;31.6;;;21;;
76548;SDS011;65391;52.068;4.542;2023-04-22T13:08:14;31.6;;;21;;
76548;SDS011;65391;52.068;4.542;2023-04-22T13:10:39;31.6;;;21;;
76548;SDS011;65391;52.068;4.542;2023-04-22T13:13:04;32.6;;;21.7;;
76548;SDS011;65391;52.068;4.542;2023-04-22T13:15:29;32.6;;;21.7;;
76548;SDS011;65391;52.068;4.542;2023-04-22T13:17:54;32.6;;;21.7;;
76548;SDS011;65391;52.068;4.542;2023-04-22T13:20:19;32.6;;;21.7;;
76548;SDS011;65391;52.068;4.542;2023-04-22T13:22:44;32.9;;;23.5;;
76548;SDS011;65391;52.068;4.542;2023-04-22T13:25:09;32.9;;;23.5;;
76548;SDS011;65391;52.068;4.542;2023-04-22T13:27:34;32.9;;;23.5;;
76548;SDS011;65391;52.068;4.542;2023-04-22T13:29:59;32.9;;;23.5;;
76548;SDS011;65391;52.068;4.542;2023-04-22T13:32:24;33.3;;;23.6;;
76548;SDS011;65391;52.068;4.542;2023-04-22T13:34:49;33.3;;;23.6;;
76548;SDS011;65391;52.068;4.542;2023-04-22T13:37:14;33.3;;;23.6;;
76548;SDS011;65391;52.068;4.542;2023-04-22T13:39:39;33.3;;;23.6;;
76548;SDS011;65391;52.068;4.542;2023-04-22T13:42:04;32;;;24.2;;
76548;SDS011;65391;52.068;4.542;2023-04-22T13:44:29;32;;;24.2;;
76548;SDS011;65391;52.068;4.542;2023-04-22T13:46:54;32;;;24.2;;
76548;SDS011;65391;52.068;4.542;2023-04-22T13:49:19;32;;;24.2;;
76548;SDS011;65391;52.068;4.542;2023-04-22T13:51:44;32.3;;;22.8;;
76548;SDS011;65391;52.068;4.542;2023-04-22T13:54:09;32.3;;;22.8;;
76548;SDS011;65391;52.068;4.542;2023-04-22T13:56:34;32.3;;;22.8;;
76548;SDS011;65391;52.068;4.542;2023-04-22T13:58:59;32.3;;;22.8;;
76548;SDS011;65391;52.068;4.542;2023-04-22T14:01:24;34.9;;;24.2;;
76548;SDS011;65391;52.068;4.542;2023-04-22T14:03:50;34.9;;;24.2;;
76548;SDS011;65391;52.068;4.542;2023-04-22T14:06:14;34.9;;;24.2;;
76548;SDS011;65391;52.068;4.542;2023-04-22T14:08:39;34.9;;;24.2;;
76548;SDS011;65391;52.068;4.542;2023-04-22T14:11:23;34.9;;;24.2;;
76548;SDS011;65391;52.068;4.542;2023-04-22T14:13:29;35;;;24;;
76548;SDS011;65391;52.068;4.542;2023-04-22T14:15:54;35;;;24;;
76548;SDS011;65391;52.068;4.542;2023-04-22T14:18:19;35;;;24;;
76548;SDS011;65391;52.068;4.542;2023-04-22T14:20:44;35;;;24;;
76548;SDS011;65391;52.068;4.542;2023-04-22T14:23:09;31.5;;;22.9;;
76548;SDS011;65391;52.068;4.542;2023-04-22T14:25:34;31.5;;;22.9;;
76548;SDS011;65391;52.068;4.542;2023-04-22T14:28:00;31.5;;;22.9;;
76548;SDS011;65391;52.068;4.542;2023-04-22T14:30:25;31.5;;;22.9;;
76548;SDS011;65391;52.068;4.542;2023-04-22T14:32:49;32.2;;;22.7;;
76548;SDS011;65391;52.068;4.542;2023-04-22T14:35:14;32.2;;;22.7;;
76548;SDS011;65391;52.068;4.542;2023-04-22T14:37:39;32.2;;;22.7;;
76548;SDS011;65391;52.068;4.542;2023-04-22T14:40:06;32.2;;;22.7;;
76548;SDS011;65391;52.068;4.542;2023-04-22T14:42:29;34.8;;;26.7;;